TimeEST,TemperatureF,Dew PointF,Humidity,Sea Level PressureIn,VisibilityMPH,Wind Direction,Wind SpeedMPH,Gust SpeedMPH,PrecipitationIn,Events,Conditions,WindDirDegrees,DateUTC
12:15 AM,30.2,28.4,93,30.00,9.0,NNE,11.5,-,0.00,,Overcast,30,2013-03-02 05:15:00
12:54 AM,30.9,28.9,92,30.02,6.0,NNE,11.5,-,0.00,Snow,Light Snow,30,2013-03-02 05:54:00
12:57 AM,30.2,28.4,93,30.00,6.0,NNE,10.4,-,0.00,Snow,Light Snow,30,2013-03-02 05:57:00
1:54 AM,30.2,26.6,86,30.00,7.0,NNE,10.4,-,N/A,Snow,Light Snow,30,2013-03-02 06:54:00
2:13 AM,30.2,28.4,93,29.99,7.0,NE,8.1,-,0.00,Snow,Light Snow,40,2013-03-02 07:13:00
2:25 AM,30.2,28.4,93,29.99,7.0,NNE,6.9,-,0.00,,Overcast,20,2013-03-02 07:25:00
2:51 AM,30.2,28.4,93,29.99,6.0,North,8.1,-,0.00,Snow,Light Snow,10,2013-03-02 07:51:00
2:54 AM,30.0,28.0,92,30.01,6.0,North,8.1,-,0.00,Snow,Light Snow,10,2013-03-02 07:54:00
3:12 AM,30.2,28.4,93,29.98,10.0,North,11.5,-,0.00,,Overcast,10,2013-03-02 08:12:00
3:19 AM,30.2,26.6,86,29.98,10.0,NNE,10.4,-,0.00,,Overcast,20,2013-03-02 08:19:00
3:54 AM,30.0,25.0,82,30.00,10.0,North,9.2,-,0.00,,Overcast,10,2013-03-02 08:54:00
4:54 AM,28.9,24.1,82,30.01,10.0,North,12.7,-,N/A,,Overcast,10,2013-03-02 09:54:00
5:31 AM,28.4,23.0,80,29.99,10.0,North,9.2,-,N/A,,Overcast,360,2013-03-02 10:31:00
5:54 AM,28.4,23.0,80,29.99,10.0,North,8.1,-,N/A,,Overcast,350,2013-03-02 10:54:00
6:54 AM,28.0,24.1,85,30.02,10.0,NNW,9.2,-,N/A,,Overcast,340,2013-03-02 11:54:00
7:06 AM,28.4,24.8,86,30.00,10.0,North,11.5,-,N/A,,Overcast,350,2013-03-02 12:06:00
7:54 AM,28.0,24.1,85,30.04,10.0,North,11.5,-,N/A,,Overcast,350,2013-03-02 12:54:00
8:51 AM,28.4,24.8,86,30.03,8.0,NNW,11.5,-,N/A,,Overcast,330,2013-03-02 13:51:00
8:54 AM,28.0,24.1,85,30.06,8.0,NNW,10.4,-,N/A,,Overcast,330,2013-03-02 13:54:00
9:54 AM,28.0,24.1,85,30.06,6.0,North,11.5,-,N/A,,Overcast,360,2013-03-02 14:54:00
10:54 AM,28.0,24.1,85,30.06,10.0,North,11.5,-,0.00,,Overcast,360,2013-03-02 15:54:00
11:54 AM,28.0,23.0,81,30.08,10.0,NNW,10.4,-,N/A,,Overcast,340,2013-03-02 16:54:00
12:54 PM,28.0,24.1,85,30.07,9.0,NW,11.5,-,0.00,,Overcast,320,2013-03-02 17:54:00
1:54 PM,28.9,24.1,82,30.06,7.0,North,10.4,-,0.00,Snow,Light Snow,350,2013-03-02 18:54:00
2:54 PM,28.0,21.9,78,30.06,4.0,NNW,10.4,-,0.00,Snow,Light Snow,330,2013-03-02 19:54:00
3:54 PM,28.0,23.0,81,30.06,3.0,NW,10.4,-,0.00,Snow,Light Snow,320,2013-03-02 20:54:00
4:04 PM,28.4,21.2,74,30.04,3.0,NW,6.9,-,0.00,Snow,Light Snow,320,2013-03-02 21:04:00
4:17 PM,28.4,24.8,86,30.04,2.0,North,8.1,-,0.00,Snow,Light Snow,360,2013-03-02 21:17:00
4:54 PM,27.0,24.1,89,30.07,1.8,NW,10.4,-,0.00,Snow,Light Snow,320,2013-03-02 21:54:00
4:57 PM,26.6,23.0,86,30.04,3.0,NW,10.4,-,N/A,Snow,Light Snow,320,2013-03-02 21:57:00
5:04 PM,26.6,23.0,86,30.04,1.8,NNW,11.5,-,N/A,Snow,Light Snow,330,2013-03-02 22:04:00
5:11 PM,28.4,23.0,80,30.04,4.0,NW,6.9,-,0.00,Snow,Light Snow,310,2013-03-02 22:11:00
5:54 PM,28.0,21.9,78,30.08,9.0,NW,10.4,-,0.00,,Overcast,310,2013-03-02 22:54:00
6:40 PM,26.6,21.2,80,30.07,9.0,WNW,9.2,-,0.00,,Overcast,300,2013-03-02 23:40:00
6:54 PM,27.0,21.9,81,30.10,10.0,NW,5.8,-,0.00,,Overcast,320,2013-03-02 23:54:00
7:54 PM,26.1,21.9,84,30.11,10.0,WNW,5.8,-,N/A,,Overcast,300,2013-03-03 00:54:00
8:54 PM,27.0,21.9,81,30.11,10.0,NW,5.8,-,0.00,,Overcast,310,2013-03-03 01:54:00
9:54 PM,27.0,21.9,81,30.12,10.0,NW,5.8,-,0.00,,Overcast,320,2013-03-03 02:54:00
10:54 PM,27.0,21.0,78,30.11,10.0,NW,5.8,-,N/A,,Overcast,320,2013-03-03 03:54:00
11:54 PM,27.0,21.0,78,30.10,10.0,WNW,5.8,-,N/A,,Overcast,290,2013-03-03 04:54:00